sensor_id;sensor_type;location;lat;lon;timestamp;pressure;altitude;pressure_sealevel;temperature;humidity
42105;BME280;70664;51.472;5.712;2024-01-10T00:02:01;102861.47;;;15.25;53.16
42105;BME280;70664;51.472;5.712;2024-01-10T00:04:28;102855.31;;;15.20;53.63
42105;BME280;70664;51.472;5.712;2024-01-10T00:06:54;102866.53;;;15.20;53.66
42105;BME280;70664;51.472;5.712;2024-01-10T00:09:20;102861.34;;;15.19;53.11
42105;BME280;70664;51.472;5.712;2024-01-10T00:11:46;102849.25;;;15.18;53.29
42105;BME280;70664;51.472;5.712;2024-01-10T00:14:12;102859.53;;;15.13;53.47
42105;BME280;70664;51.472;5.712;2024-01-10T00:16:37;102847.38;;;15.10;53.39
42105;BME280;70664;51.472;5.712;2024-01-10T00:19:03;102849.97;;;15.10;53.52
42105;BME280;70664;51.472;5.712;2024-01-10T00:21:29;102847.38;;;15.09;53.18
42105;BME280;70664;51.472;5.712;2024-01-10T00:23:55;102847.31;;;15.06;53.13
42105;BME280;70664;51.472;5.712;2024-01-10T00:26:20;102847.31;;;15.04;53.46
42105;BME280;70664;51.472;5.712;2024-01-10T00:28:46;102832.63;;;15.05;53.22
42105;BME280;70664;51.472;5.712;2024-01-10T00:31:13;102848.13;;;15.02;53.24
42105;BME280;70664;51.472;5.712;2024-01-10T00:33:39;102839.44;;;14.98;53.41
42105;BME280;70664;51.472;5.712;2024-01-10T00:36:06;102839.44;;;14.98;53.41
42105;BME280;70664;51.472;5.712;2024-01-10T00:38:32;102839.38;;;14.96;53.22
42105;BME280;70664;51.472;5.712;2024-01-10T00:40:58;102840.22;;;14.94;53.07
42105;BME280;70664;51.472;5.712;2024-01-10T00:43:24;102831.56;;;14.93;53.05
42105;BME280;70664;51.472;5.712;2024-01-10T00:45:50;102835.88;;;14.93;53.36
42105;BME280;70664;51.472;5.712;2024-01-10T00:48:16;102831.50;;;14.89;53.26
42105;BME280;70664;51.472;5.712;2024-01-10T00:50:45;102834.88;;;14.85;52.90
42105;BME280;70664;51.472;5.712;2024-01-10T00:53:11;102834.84;;;14.83;53.20
42105;BME280;70664;51.472;5.712;2024-01-10T00:55:37;102833.06;;;14.80;52.87
42105;BME280;70664;51.472;5.712;2024-01-10T00:58:03;102828.72;;;14.79;53.00
42105;BME280;70664;51.472;5.712;2024-01-10T01:00:29;102820.97;;;14.79;52.78
42105;BME280;70664;51.472;5.712;2024-01-10T01:02:55;102825.28;;;14.77;52.85
42105;BME280;70664;51.472;5.712;2024-01-10T01:05:20;102828.66;;;14.75;53.12
42105;BME280;70664;51.472;5.712;2024-01-10T01:07:47;102837.28;;;14.74;52.87
42105;BME280;70664;51.472;5.712;2024-01-10T01:10:13;102827.75;;;14.73;52.87
42105;BME280;70664;51.472;5.712;2024-01-10T01:12:38;102839.84;;;14.72;52.93
42105;BME280;70664;51.472;5.712;2024-01-10T01:15:06;102832.03;;;14.71;52.74
42105;BME280;70664;51.472;5.712;2024-01-10T01:17:32;102844.97;;;14.71;52.78
42105;BME280;70664;51.472;5.712;2024-01-10T01:19:57;102830.25;;;14.68;52.78
42105;BME280;70664;51.472;5.712;2024-01-10T01:22:23;102837.97;;;14.66;52.67
42105;BME280;70664;51.472;5.712;2024-01-10T01:24:49;102826.84;;;14.69;52.77
42105;BME280;70664;51.472;5.712;2024-01-10T01:27:15;102835.34;;;14.63;52.84
42105;BME280;70664;51.472;5.712;2024-01-10T01:29:41;102825.78;;;14.61;52.72
42105;BME280;70664;51.472;5.712;2024-01-10T01:32:06;102831.88;;;14.63;52.45
42105;BME280;70664;51.472;5.712;2024-01-10T01:34:32;102828.41;;;14.62;52.48
42105;BME280;70664;51.472;5.712;2024-01-10T01:36:58;102825.78;;;14.59;52.62
42105;BME280;70664;51.472;5.712;2024-01-10T01:39:24;102836.13;;;14.59;52.59
42105;BME280;70664;51.472;5.712;2024-01-10T01:41:50;102834.38;;;14.58;52.64
42105;BME280;70664;51.472;5.712;2024-01-10T01:44:15;102826.56;;;14.55;52.35
42105;BME280;70664;51.472;5.712;2024-01-10T01:46:41;102823.06;;;14.53;52.46
42105;BME280;70664;51.472;5.712;2024-01-10T01:49:07;102822.16;;;14.52;52.25
42105;BME280;70664;51.472;5.712;2024-01-10T01:51:34;102819.56;;;14.51;52.38
42105;BME280;70664;51.472;5.712;2024-01-10T01:54:06;102819.56;;;14.49;52.52
42105;BME280;70664;51.472;5.712;2024-01-10T01:56:36;102821.28;;;14.50;52.14
42105;BME280;70664;51.472;5.712;2024-01-10T01:59:04;102821.19;;;14.46;52.43
42105;BME280;70664;51.472;5.712;2024-01-10T02:01:30;102819.50;;;14.46;52.39
42105;BME280;70664;51.472;5.712;2024-01-10T02:03:56;102815.13;;;14.44;52.34
42105;BME280;70664;51.472;5.712;2024-01-10T02:06:22;102815.13;;;14.44;52.21
42105;BME280;70664;51.472;5.712;2024-01-10T02:08:47;102809.94;;;14.44;52.17
42105;BME280;70664;51.472;5.712;2024-01-10T02:11:13;102812.47;;;14.41;52.58
42105;BME280;70664;51.472;5.712;2024-01-10T02:13:39;102802.94;;;14.39;52.27
42105;BME280;70664;51.472;5.712;2024-01-10T02:16:06;102796.91;;;14.39;52.30
42105;BME280;70664;51.472;5.712;2024-01-10T02:18:33;102807.22;;;14.37;52.27
42105;BME280;70664;51.472;5.712;2024-01-10T02:21:01;102803.72;;;14.34;52.50
42105;BME280;70664;51.472;5.712;2024-01-10T02:23:26;102803.69;;;14.32;52.04
42105;BME280;70664;51.472;5.712;2024-01-10T02:25:52;102806.31;;;14.34;52.29
42105;BME280;70664;51.472;5.712;2024-01-10T02:28:18;102801.97;;;14.33;52.08
42105;BME280;70664;51.472;5.712;2024-01-10T02:30:44;102792.47;;;14.32;52.13
42105;BME280;70664;51.472;5.712;2024-01-10T02:33:10;102794.19;;;14.31;52.34
42105;BME280;70664;51.472;5.712;2024-01-10T02:35:35;102800.22;;;14.30;52.21
42105;BME280;70664;51.472;5.712;2024-01-10T02:38:02;102797.56;;;14.29;52.13
42105;BME280;70664;51.472;5.712;2024-01-10T02:40:28;102793.22;;;14.26;52.26
42105;BME280;70664;51.472;5.712;2024-01-10T02:42:54;102790.63;;;14.26;52.20
42105;BME280;70664;51.472;5.712;2024-01-10T02:45:20;102800.09;;;14.26;52.19
42105;BME280;70664;51.472;5.712;2024-01-10T02:47:46;102792.34;;;14.26;52.20
42105;BME280;70664;51.472;5.712;2024-01-10T02:50:11;102792.28;;;14.22;52.14
42105;BME280;70664;51.472;5.712;2024-01-10T02:52:37;102791.41;;;14.20;52.20
42105;BME280;70664;51.472;5.712;2024-01-10T02:55:03;102789.69;;;14.21;52.18
42105;BME280;70664;51.472;5.712;2024-01-10T02:57:29;102801.75;;;14.20;52.09
42105;BME280;70664;51.472;5.712;2024-01-10T02:59:55;102795.69;;;14.18;51.95
42105;BME280;70664;51.472;5.712;2024-01-10T03:02:21;102793.09;;;14.18;52.35
42105;BME280;70664;51.472;5.712;2024-01-10T03:04:49;102787.88;;;14.17;52.18
42105;BME280;70664;51.472;5.712;2024-01-10T03:07:15;102791.28;;;14.16;51.98
42105;BME280;70664;51.472;5.712;2024-01-10T03:09:40;102789.53;;;14.13;52.35
42105;BME280;70664;51.472;5.712;2024-01-10T03:12:06;102778.34;;;14.14;52.14
42105;BME280;70664;51.472;5.712;2024-01-10T03:14:33;102784.34;;;14.13;52.15
42105;BME280;70664;51.472;5.712;2024-01-10T03:17:00;102783.41;;;14.09;51.91
42105;BME280;70664;51.472;5.712;2024-01-10T03:19:25;102780.81;;;14.09;52.01
42105;BME280;70664;51.472;5.712;2024-01-10T03:21:51;102775.66;;;14.09;51.89
42105;BME280;70664;51.472;5.712;2024-01-10T03:24:17;102772.19;;;14.07;52.27
42105;BME280;70664;51.472;5.712;2024-01-10T03:26:43;102769.56;;;14.06;51.78
42105;BME280;70664;51.472;5.712;2024-01-10T03:29:09;102766.97;;;14.06;52.36
42105;BME280;70664;51.472;5.712;2024-01-10T03:31:35;102760.03;;;14.05;52.25
42105;BME280;70664;51.472;5.712;2024-01-10T03:34:00;102762.63;;;14.03;52.01
42105;BME280;70664;51.472;5.712;2024-01-10T03:36:26;102757.47;;;14.05;51.92
42105;BME280;70664;51.472;5.712;2024-01-10T03:38:52;102757.41;;;14.02;52.05
42105;BME280;70664;51.472;5.712;2024-01-10T03:41:19;102746.97;;;13.99;51.87
42105;BME280;70664;51.472;5.712;2024-01-10T03:43:46;102756.50;;;14.00;51.95
42105;BME280;70664;51.472;5.712;2024-01-10T03:46:13;102750.41;;;13.98;51.81
42105;BME280;70664;51.472;5.712;2024-01-10T03:48:39;102754.69;;;13.96;52.21
42105;BME280;70664;51.472;5.712;2024-01-10T03:51:17;102747.75;;;13.93;52.15
42105;BME280;70664;51.472;5.712;2024-01-10T03:53:43;102758.16;;;13.96;51.94
42105;BME280;70664;51.472;5.712;2024-01-10T03:56:09;102752.06;;;13.92;51.80
42105;BME280;70664;51.472;5.712;2024-01-10T03:58:37;102747.72;;;13.91;52.07
42105;BME280;70664;51.472;5.712;2024-01-10T04:01:07;102752.06;;;13.92;51.92
42105;BME280;70664;51.472;5.712;2024-01-10T04:03:33;102746.81;;;13.89;51.96
42105;BME280;70664;51.472;5.712;2024-01-10T04:06:00;102743.34;;;13.89;52.11
42105;BME280;70664;51.472;5.712;2024-01-10T04:08:26;102740.69;;;13.86;51.87
42105;BME280;70664;51.472;5.712;2024-01-10T04:10:52;102739.84;;;13.87;51.89
42105;BME280;70664;51.472;5.712;2024-01-10T04:13:18;102742.44;;;13.87;51.86
42105;BME280;70664;51.472;5.712;2024-01-10T04:15:43;102734.63;;;13.84;51.86
42105;BME280;70664;51.472;5.712;2024-01-10T04:18:09;102724.28;;;13.84;52.14
42105;BME280;70664;51.472;5.712;2024-01-10T04:20:35;102741.53;;;13.83;51.85
42105;BME280;70664;51.472;5.712;2024-01-10T04:23:01;102740.63;;;13.83;52.02
42105;BME280;70664;51.472;5.712;2024-01-10T04:25:27;102739.78;;;13.82;52.15
42105;BME280;70664;51.472;5.712;2024-01-10T04:27:52;102736.34;;;13.83;51.88
42105;BME280;70664;51.472;5.712;2024-01-10T04:30:18;102738.88;;;13.80;51.83
42105;BME280;70664;51.472;5.712;2024-01-10T04:32:44;102746.59;;;13.78;52.06
42105;BME280;70664;51.472;5.712;2024-01-10T04:35:10;102746.63;;;13.80;51.60
42105;BME280;70664;51.472;5.712;2024-01-10T04:37:36;102748.31;;;13.78;52.08
42105;BME280;70664;51.472;5.712;2024-01-10T04:40:01;102746.56;;;13.77;51.82
42105;BME280;70664;51.472;5.712;2024-01-10T04:42:27;102745.69;;;13.76;51.68
42105;BME280;70664;51.472;5.712;2024-01-10T04:44:53;102737.88;;;13.73;52.03
42105;BME280;70664;51.472;5.712;2024-01-10T04:47:19;102730.97;;;13.72;52.04
42105;BME280;70664;51.472;5.712;2024-01-10T04:49:44;102734.41;;;13.73;51.87
42105;BME280;70664;51.472;5.712;2024-01-10T04:52:10;102734.41;;;13.73;51.74
42105;BME280;70664;51.472;5.712;2024-01-10T04:54:36;102733.47;;;13.69;52.07
42105;BME280;70664;51.472;5.712;2024-01-10T04:57:01;102728.34;;;13.71;51.75
42105;BME280;70664;51.472;5.712;2024-01-10T04:59:27;102731.75;;;13.70;51.69
42105;BME280;70664;51.472;5.712;2024-01-10T05:01:53;102724.84;;;13.69;51.93
42105;BME280;70664;51.472;5.712;2024-01-10T05:04:19;102722.25;;;13.67;51.93
42105;BME280;70664;51.472;5.712;2024-01-10T05:06:45;102720.50;;;13.66;51.82
42105;BME280;70664;51.472;5.712;2024-01-10T05:09:10;102723.00;;;13.63;51.74
42105;BME280;70664;51.472;5.712;2024-01-10T05:11:36;102735.94;;;13.63;51.90
42105;BME280;70664;51.472;5.712;2024-01-10T05:14:03;102730.75;;;13.63;52.31
42105;BME280;70664;51.472;5.712;2024-01-10T05:16:29;102729.06;;;13.63;52.01
42105;BME280;70664;51.472;5.712;2024-01-10T05:18:54;102730.75;;;13.63;51.94
42105;BME280;70664;51.472;5.712;2024-01-10T05:21:21;102726.44;;;13.62;51.96
42105;BME280;70664;51.472;5.712;2024-01-10T05:23:47;102724.66;;;13.59;51.96
42105;BME280;70664;51.472;5.712;2024-01-10T05:26:13;102725.50;;;13.58;52.12
42105;BME280;70664;51.472;5.712;2024-01-10T05:28:38;102722.03;;;13.58;51.78
42105;BME280;70664;51.472;5.712;2024-01-10T05:31:04;102725.47;;;13.57;51.97
42105;BME280;70664;51.472;5.712;2024-01-10T05:33:30;102723.69;;;13.54;51.85
42105;BME280;70664;51.472;5.712;2024-01-10T05:35:56;102721.13;;;13.56;51.84
42105;BME280;70664;51.472;5.712;2024-01-10T05:38:23;102733.13;;;13.54;51.79
42105;BME280;70664;51.472;5.712;2024-01-10T05:40:49;102733.13;;;13.54;51.71
42105;BME280;70664;51.472;5.712;2024-01-10T05:43:15;102725.38;;;13.52;51.78
42105;BME280;70664;51.472;5.712;2024-01-10T05:45:41;102724.50;;;13.52;52.00
42105;BME280;70664;51.472;5.712;2024-01-10T05:48:07;102728.78;;;13.50;51.69
42105;BME280;70664;51.472;5.712;2024-01-10T05:50:33;102725.31;;;13.49;51.62
42105;BME280;70664;51.472;5.712;2024-01-10T05:52:58;102725.28;;;13.47;52.06
42105;BME280;70664;51.472;5.712;2024-01-10T05:55:24;102728.72;;;13.48;51.69
42105;BME280;70664;51.472;5.712;2024-01-10T05:57:50;102732.16;;;13.47;51.82
42105;BME280;70664;51.472;5.712;2024-01-10T06:00:16;102731.25;;;13.45;51.79
42105;BME280;70664;51.472;5.712;2024-01-10T06:02:42;102726.91;;;13.44;51.66
42105;BME280;70664;51.472;5.712;2024-01-10T06:05:10;102723.47;;;13.45;51.67
42105;BME280;70664;51.472;5.712;2024-01-10T06:07:38;102719.22;;;13.45;51.72
42105;BME280;70664;51.472;5.712;2024-01-10T06:10:04;102717.47;;;13.44;51.57
42105;BME280;70664;51.472;5.712;2024-01-10T06:12:31;102716.50;;;13.41;51.63
42105;BME280;70664;51.472;5.712;2024-01-10T06:14:57;102718.19;;;13.40;51.61
42105;BME280;70664;51.472;5.712;2024-01-10T06:17:23;102715.56;;;13.39;51.69
42105;BME280;70664;51.472;5.712;2024-01-10T06:19:50;102717.41;;;13.43;51.59
42105;BME280;70664;51.472;5.712;2024-01-10T06:22:17;102719.03;;;13.39;51.53
42105;BME280;70664;51.472;5.712;2024-01-10T06:24:44;102723.31;;;13.39;51.59
42105;BME280;70664;51.472;5.712;2024-01-10T06:27:09;102709.53;;;13.38;51.53
42105;BME280;70664;51.472;5.712;2024-01-10T06:29:36;102712.06;;;13.35;51.78
42105;BME280;70664;51.472;5.712;2024-01-10T06:32:05;102713.78;;;13.34;51.63
42105;BME280;70664;51.472;5.712;2024-01-10T06:34:32;102718.94;;;13.34;51.74
42105;BME280;70664;51.472;5.712;2024-01-10T06:36:58;102719.81;;;13.35;51.40
42105;BME280;70664;51.472;5.712;2024-01-10T06:39:24;102726.63;;;13.31;51.65
42105;BME280;70664;51.472;5.712;2024-01-10T06:41:50;102724.00;;;13.30;51.63
42105;BME280;70664;51.472;5.712;2024-01-10T06:44:16;102719.72;;;13.32;51.47
42105;BME280;70664;51.472;5.712;2024-01-10T06:46:44;102719.72;;;13.30;51.61
42105;BME280;70664;51.472;5.712;2024-01-10T06:49:10;102727.47;;;13.30;51.52
42105;BME280;70664;51.472;5.712;2024-01-10T06:51:36;102726.47;;;13.25;51.49
42105;BME280;70664;51.472;5.712;2024-01-10T06:54:02;102718.75;;;13.27;51.76
42105;BME280;70664;51.472;5.712;2024-01-10T06:56:32;102718.75;;;13.27;51.69
42105;BME280;70664;51.472;5.712;2024-01-10T06:58:59;102733.38;;;13.26;51.63
42105;BME280;70664;51.472;5.712;2024-01-10T07:01:26;102739.31;;;13.22;51.51
42105;BME280;70664;51.472;5.712;2024-01-10T07:03:55;102742.78;;;13.23;51.61
42105;BME280;70664;51.472;5.712;2024-01-10T07:06:21;102739.31;;;13.22;51.44
42105;BME280;70664;51.472;5.712;2024-01-10T07:08:49;102734.13;;;13.21;51.48
42105;BME280;70664;51.472;5.712;2024-01-10T07:11:16;102727.22;;;13.19;51.92
42105;BME280;70664;51.472;5.712;2024-01-10T07:13:42;102721.16;;;13.17;51.75
42105;BME280;70664;51.472;5.712;2024-01-10T07:16:09;102718.56;;;13.17;51.77
42105;BME280;70664;51.472;5.712;2024-01-10T07:18:35;102717.69;;;13.17;51.38
42105;BME280;70664;51.472;5.712;2024-01-10T07:21:01;102718.50;;;13.16;51.69
42105;BME280;70664;51.472;5.712;2024-01-10T07:23:27;102711.66;;;13.16;51.42
42105;BME280;70664;51.472;5.712;2024-01-10T07:25:53;102711.59;;;13.15;51.52
42105;BME280;70664;51.472;5.712;2024-01-10T07:28:19;102721.16;;;13.17;51.77
42105;BME280;70664;51.472;5.712;2024-01-10T07:30:45;102721.16;;;13.19;52.21
42105;BME280;70664;51.472;5.712;2024-01-10T07:33:11;102715.09;;;13.17;52.34
42105;BME280;70664;51.472;5.712;2024-01-10T07:35:37;102715.09;;;13.17;52.53
42105;BME280;70664;51.472;5.712;2024-01-10T07:38:04;102707.41;;;13.18;52.84
42105;BME280;70664;51.472;5.712;2024-01-10T07:40:34;102706.50;;;13.16;52.82
42105;BME280;70664;51.472;5.712;2024-01-10T07:43:00;102708.16;;;13.14;53.72
42105;BME280;70664;51.472;5.712;2024-01-10T07:45:26;102708.31;;;13.21;53.48
42105;BME280;70664;51.472;5.712;2024-01-10T07:47:52;102704.22;;;13.30;53.06
42105;BME280;70664;51.472;5.712;2024-01-10T07:50:18;102707.63;;;13.29;52.87
42105;BME280;70664;51.472;5.712;2024-01-10T07:52:46;102712.09;;;13.37;52.82
42105;BME280;70664;51.472;5.712;2024-01-10T07:55:12;102705.81;;;13.25;53.86
42105;BME280;70664;51.472;5.712;2024-01-10T07:57:38;102711.06;;;13.28;53.96
42105;BME280;70664;51.472;5.712;2024-01-10T08:00:08;102715.38;;;13.29;54.55
42105;BME280;70664;51.472;5.712;2024-01-10T08:02:37;102717.97;;;13.29;54.19
42105;BME280;70664;51.472;5.712;2024-01-10T08:05:07;102717.97;;;13.31;54.04
42105;BME280;70664;51.472;5.712;2024-01-10T08:07:37;102717.22;;;13.35;54.29
42105;BME280;70664;51.472;5.712;2024-01-10T08:10:07;102709.53;;;13.37;54.20
42105;BME280;70664;51.472;5.712;2024-01-10T08:12:35;102713.84;;;13.38;54.32
42105;BME280;70664;51.472;5.712;2024-01-10T08:15:01;102717.31;;;13.40;54.16
42105;BME280;70664;51.472;5.712;2024-01-10T08:17:27;102720.84;;;13.42;54.51
42105;BME280;70664;51.472;5.712;2024-01-10T08:19:53;102726.06;;;13.43;54.12
42105;BME280;70664;51.472;5.712;2024-01-10T08:22:20;102729.50;;;13.44;54.22
42105;BME280;70664;51.472;5.712;2024-01-10T08:24:46;102735.56;;;13.46;54.39
42105;BME280;70664;51.472;5.712;2024-01-10T08:27:12;102727.88;;;13.47;54.31
42105;BME280;70664;51.472;5.712;2024-01-10T08:29:38;102727.03;;;13.48;54.66
42105;BME280;70664;51.472;5.712;2024-01-10T08:32:05;102729.63;;;13.48;54.39
42105;BME280;70664;51.472;5.712;2024-01-10T08:34:31;102728.72;;;13.48;54.47
42105;BME280;70664;51.472;5.712;2024-01-10T08:36:56;102730.56;;;13.54;54.44
42105;BME280;70664;51.472;5.712;2024-01-10T08:39:22;102735.72;;;13.52;54.49
42105;BME280;70664;51.472;5.712;2024-01-10T08:41:50;102736.75;;;13.60;54.16
42105;BME280;70664;51.472;5.712;2024-01-10T08:44:16;102733.28;;;13.60;54.49
42105;BME280;70664;51.472;5.712;2024-01-10T08:46:41;102741.19;;;13.68;54.13
42105;BME280;70664;51.472;5.712;2024-01-10T08:49:07;102743.69;;;13.63;54.19
42105;BME280;70664;51.472;5.712;2024-01-10T08:51:33;102733.34;;;13.63;54.33
42105;BME280;70664;51.472;5.712;2024-01-10T08:54:00;102737.75;;;13.67;54.00
42105;BME280;70664;51.472;5.712;2024-01-10T08:56:26;102737.75;;;13.67;54.01
42105;BME280;70664;51.472;5.712;2024-01-10T08:58:52;102742.22;;;13.74;54.42
42105;BME280;70664;51.472;5.712;2024-01-10T09:01:18;102743.28;;;13.86;53.67
42105;BME280;70664;51.472;5.712;2024-01-10T09:03:45;102745.16;;;13.93;53.74
42105;BME280;70664;51.472;5.712;2024-01-10T09:06:11;102741.09;;;14.04;53.37
42105;BME280;70664;51.472;5.712;2024-01-10T09:08:38;102741.28;;;14.15;53.16
42105;BME280;70664;51.472;5.712;2024-01-10T09:11:05;102737.59;;;14.04;53.75
42105;BME280;70664;51.472;5.712;2024-01-10T09:13:31;102747.31;;;14.16;53.46
42105;BME280;70664;51.472;5.712;2024-01-10T09:15:57;102751.59;;;14.14;53.63
42105;BME280;70664;51.472;5.712;2024-01-10T09:18:23;102751.63;;;14.15;53.44
42105;BME280;70664;51.472;5.712;2024-01-10T09:20:48;102750.09;;;14.25;53.41
42105;BME280;70664;51.472;5.712;2024-01-10T09:23:14;102751.84;;;14.26;53.56
42105;BME280;70664;51.472;5.712;2024-01-10T09:25:41;102755.56;;;14.42;53.23
42105;BME280;70664;51.472;5.712;2024-01-10T09:28:07;102750.09;;;14.27;53.63
42105;BME280;70664;51.472;5.712;2024-01-10T09:30:33;102748.66;;;14.43;53.33
42105;BME280;70664;51.472;5.712;2024-01-10T09:32:59;102745.13;;;14.37;53.13
42105;BME280;70664;51.472;5.712;2024-01-10T09:35:26;102737.41;;;14.41;52.88
42105;BME280;70664;51.472;5.712;2024-01-10T09:37:52;102739.44;;;14.57;52.60
42105;BME280;70664;51.472;5.712;2024-01-10T09:40:19;102747.22;;;14.57;52.81
42105;BME280;70664;51.472;5.712;2024-01-10T09:42:49;102750.13;;;14.74;53.06
42105;BME280;70664;51.472;5.712;2024-01-10T09:45:21;102744.75;;;14.66;52.72
42105;BME280;70664;51.472;5.712;2024-01-10T09:47:52;102746.59;;;14.71;52.94
42105;BME280;70664;51.472;5.712;2024-01-10T09:50:19;102761.34;;;14.75;52.96
42105;BME280;70664;51.472;5.712;2024-01-10T09:52:53;102760.28;;;14.63;52.78
42105;BME280;70664;51.472;5.712;2024-01-10T09:55:22;102761.28;;;14.72;52.82
42105;BME280;70664;51.472;5.712;2024-01-10T09:57:49;102767.41;;;14.77;52.80
42105;BME280;70664;51.472;5.712;2024-01-10T10:00:16;102770.22;;;14.89;52.74
42105;BME280;70664;51.472;5.712;2024-01-10T10:02:42;102770.97;;;14.83;52.54
42105;BME280;70664;51.472;5.712;2024-01-10T10:05:16;102770.06;;;14.81;52.85
42105;BME280;70664;51.472;5.712;2024-01-10T10:07:52;102759.88;;;14.91;53.22
42105;BME280;70664;51.472;5.712;2024-01-10T10:10:21;102759.81;;;14.88;53.96
42105;BME280;70664;51.472;5.712;2024-01-10T10:12:49;102753.06;;;14.97;53.62
42105;BME280;70664;51.472;5.712;2024-01-10T10:15:17;102756.66;;;15.04;53.54
42105;BME280;70664;51.472;5.712;2024-01-10T10:17:49;102752.22;;;14.98;53.54
42105;BME280;70664;51.472;5.712;2024-01-10T10:20:26;102753.06;;;14.97;53.72
42105;BME280;70664;51.472;5.712;2024-01-10T10:25:36;102754.06;;;15.06;53.38
42105;BME280;70664;51.472;5.712;2024-01-10T10:28:04;102748.94;;;15.09;53.76
42105;BME280;70664;51.472;5.712;2024-01-10T10:30:32;102754.06;;;15.07;53.73
42105;BME280;70664;51.472;5.712;2024-01-10T10:33:02;102754.25;;;15.18;53.62
42105;BME280;70664;51.472;5.712;2024-01-10T10:35:28;102740.31;;;15.10;53.58
42105;BME280;70664;51.472;5.712;2024-01-10T10:37:54;102743.75;;;15.09;53.61
42105;BME280;70664;51.472;5.712;2024-01-10T10:40:21;102733.50;;;15.17;53.63
42105;BME280;70664;51.472;5.712;2024-01-10T10:42:49;102733.44;;;15.13;53.70
42105;BME280;70664;51.472;5.712;2024-01-10T10:45:20;102724.88;;;15.16;53.66
42105;BME280;70664;51.472;5.712;2024-01-10T10:47:57;102731.59;;;15.06;53.81
42105;BME280;70664;51.472;5.712;2024-01-10T10:50:24;102731.81;;;15.20;53.65
42105;BME280;70664;51.472;5.712;2024-01-10T10:52:51;102729.97;;;15.11;53.79
42105;BME280;70664;51.472;5.712;2024-01-10T10:55:19;102737.81;;;15.18;53.61
42105;BME280;70664;51.472;5.712;2024-01-10T10:57:46;102723.97;;;15.14;53.54
42105;BME280;70664;51.472;5.712;2024-01-10T11:00:20;102728.38;;;15.21;53.12
42105;BME280;70664;51.472;5.712;2024-01-10T11:02:47;102723.16;;;15.18;53.39
42105;BME280;70664;51.472;5.712;2024-01-10T11:05:15;102733.63;;;15.26;53.30
42105;BME280;70664;51.472;5.712;2024-01-10T11:07:43;102727.50;;;15.19;53.42
42105;BME280;70664;51.472;5.712;2024-01-10T11:10:33;102728.25;;;15.13;53.21
42105;BME280;70664;51.472;5.712;2024-01-10T11:19:50;102723.13;;;15.17;53.53
42105;BME280;70664;51.472;5.712;2024-01-10T11:22:59;102725.81;;;15.24;53.60
42105;BME280;70664;51.472;5.712;2024-01-10T11:25:30;102715.50;;;15.27;53.43
42105;BME280;70664;51.472;5.712;2024-01-10T11:27:56;102720.38;;;15.04;54.27
42105;BME280;70664;51.472;5.712;2024-01-10T11:30:36;102723.91;;;15.11;53.73
42105;BME280;70664;51.472;5.712;2024-01-10T11:33:26;102718.78;;;15.14;53.81
42105;BME280;70664;51.472;5.712;2024-01-10T11:36:16;102720.59;;;15.20;53.42
42105;BME280;70664;51.472;5.712;2024-01-10T11:41:36;102708.53;;;15.22;53.85
42105;BME280;70664;51.472;5.712;2024-01-10T11:46:46;102707.63;;;15.20;53.64
42105;BME280;70664;51.472;5.712;2024-01-10T11:49:18;102704.06;;;15.11;53.57
42105;BME280;70664;51.472;5.712;2024-01-10T11:51:56;102705.88;;;15.17;53.89
42105;BME280;70664;51.472;5.712;2024-01-10T11:59:45;102699.84;;;15.18;53.78
42105;BME280;70664;51.472;5.712;2024-01-10T12:02:15;102699.84;;;15.20;53.59
42105;BME280;70664;51.472;5.712;2024-01-10T12:04:41;102704.16;;;15.18;53.40
42105;BME280;70664;51.472;5.712;2024-01-10T12:07:07;102702.50;;;15.24;53.72
42105;BME280;70664;51.472;5.712;2024-01-10T12:09:35;102693.81;;;15.19;53.86
42105;BME280;70664;51.472;5.712;2024-01-10T12:12:04;102701.66;;;15.24;53.88
42105;BME280;70664;51.472;5.712;2024-01-10T12:14:30;102688.72;;;15.27;53.98
42105;BME280;70664;51.472;5.712;2024-01-10T12:16:57;102689.59;;;15.26;53.46
42105;BME280;70664;51.472;5.712;2024-01-10T12:19:23;102687.00;;;15.27;53.26
42105;BME280;70664;51.472;5.712;2024-01-10T12:21:49;102681.84;;;15.29;53.37
42105;BME280;70664;51.472;5.712;2024-01-10T12:24:15;102684.50;;;15.35;53.23
42105;BME280;70664;51.472;5.712;2024-01-10T12:26:48;102681.84;;;15.31;53.44
42105;BME280;70664;51.472;5.712;2024-01-10T12:29:18;102676.72;;;15.35;53.14
42105;BME280;70664;51.472;5.712;2024-01-10T12:31:46;102682.81;;;15.37;52.97
42105;BME280;70664;51.472;5.712;2024-01-10T12:34:12;102680.22;;;15.37;52.96
42105;BME280;70664;51.472;5.712;2024-01-10T12:36:39;102696.69;;;15.41;53.14
42105;BME280;70664;51.472;5.712;2024-01-10T12:39:05;102683.69;;;15.38;55.15
42105;BME280;70664;51.472;5.712;2024-01-10T12:41:33;102688.19;;;15.54;55.19
42105;BME280;70664;51.472;5.712;2024-01-10T12:44:01;102696.03;;;15.57;54.99
42105;BME280;70664;51.472;5.712;2024-01-10T12:46:29;102686.47;;;15.53;55.37
42105;BME280;70664;51.472;5.712;2024-01-10T12:49:15;102686.59;;;15.63;55.03
42105;BME280;70664;51.472;5.712;2024-01-10T12:51:41;102690.06;;;15.65;54.73
42105;BME280;70664;51.472;5.712;2024-01-10T12:54:07;102686.59;;;15.63;54.98
42105;BME280;70664;51.472;5.712;2024-01-10T12:56:33;102681.50;;;15.73;54.69
42105;BME280;70664;51.472;5.712;2024-01-10T12:59:00;102679.78;;;15.72;54.39
42105;BME280;70664;51.472;5.712;2024-01-10T13:01:26;102681.50;;;15.72;54.76
42105;BME280;70664;51.472;5.712;2024-01-10T13:03:52;102684.09;;;15.72;54.45
42105;BME280;70664;51.472;5.712;2024-01-10T13:06:18;102687.56;;;15.71;54.49
42105;BME280;70664;51.472;5.712;2024-01-10T13:08:48;102685.75;;;15.67;54.86
42105;BME280;70664;51.472;5.712;2024-01-10T13:11:15;102692.66;;;15.66;54.77